Time;durP1;ratioP1;P1;durP2;ratioP2;P2;SDS_P1;SDS_P2;PMS_P1;PMS_P2;Temp;Humidity;BMP_temperature;BMP_pressure;BME280_temperature;BME280_humidity;BME280_pressure;Samples;Min_cycle;Max_cycle;Signal;HPM_P1;HPM_P2
2023/01/01 00:01:51;;;;;;;7.43;6.60;;;;;;;;;;5033788;28;20193;-79
2023/01/01 00:04:17;;;;;;;11.07;7.47;;;;;;;;;;5032452;28;20658;-80
2023/01/01 00:06:44;;;;;;;8.17;6.63;;;;;;;;;;5032619;28;20333;-82
2023/01/01 00:11:55;;;;;;;9.30;6.73;;;;;;;;;;5038750;28;20272;-82
2023/01/01 00:14:21;;;;;;;8.90;6.77;;;;;;;;;;5036270;28;20181;-83
2023/01/01 00:16:48;;;;;;;7.13;5.97;;;;;;;;;;5032677;28;20196;-79
2023/01/01 00:19:14;;;;;;;7.47;5.80;;;;;;;;;;5042024;28;20288;-78
2023/01/01 00:21:40;;;;;;;9.53;6.03;;;;;;;;;;5036328;28;20185;-76
2023/01/01 00:24:06;;;;;;;7.50;6.13;;;;;;;;;;5040458;28;20193;-78
2023/01/01 00:26:32;;;;;;;7.73;5.97;;;;;;;;;;5044350;28;20182;-77
2023/01/01 00:28:58;;;;;;;9.20;5.77;;;;;;;;;;5044529;28;20220;-78
2023/01/01 00:31:24;;;;;;;7.97;6.30;;;;;;;;;;5048452;28;20319;-79
2023/01/01 00:33:51;;;;;;;9.13;5.87;;;;;;;;;;5049491;28;20194;-78
2023/01/01 00:36:18;;;;;;;7.50;5.33;;;;;;;;;;5053690;28;20189;-78
2023/01/01 00:38:45;;;;;;;10.77;5.70;;;;;;;;;;5053299;28;20259;-79
2023/01/01 00:41:12;;;;;;;8.07;6.10;;;;;;;;;;5050067;28;20210;-79
2023/01/01 00:43:38;;;;;;;7.17;5.13;;;;;;;;;;5050844;28;20181;-76
2023/01/01 00:46:04;;;;;;;8.60;5.60;;;;;;;;;;5052659;28;20189;-80
2023/01/01 00:48:30;;;;;;;7.83;5.23;;;;;;;;;;5050210;28;20196;-80
2023/01/01 00:50:56;;;;;;;7.70;5.03;;;;;;;;;;5055050;28;20169;-78
2023/01/01 00:53:22;;;;;;;8.73;6.07;;;;;;;;;;5057969;28;20184;-79
2023/01/01 00:55:49;;;;;;;7.27;6.00;;;;;;;;;;5052213;28;20260;-79
2023/01/01 00:58:15;;;;;;;9.17;5.63;;;;;;;;;;5046247;28;20193;-76
2023/01/01 01:00:41;;;;;;;8.93;6.50;;;;;;;;;;5046959;28;20193;-76
2023/01/01 01:03:07;;;;;;;7.97;5.47;;;;;;;;;;5056215;28;20209;-78
2023/01/01 01:05:36;;;;;;;7.23;5.57;;;;;;;;;;5057596;28;20181;-78
2023/01/01 01:11:15;;;;;;;9.47;6.20;;;;;;;;;;5043542;28;20200;-76
2023/01/01 01:13:44;;;;;;;7.67;5.90;;;;;;;;;;5045265;28;20196;-78
2023/01/01 01:19:17;;;;;;;7.30;5.80;;;;;;;;;;5045685;28;20184;-78
2023/01/01 01:21:43;;;;;;;9.27;5.97;;;;;;;;;;5042290;28;20197;-76
2023/01/01 01:24:10;;;;;;;7.17;5.43;;;;;;;;;;5043112;28;20182;-76
2023/01/01 01:26:36;;;;;;;7.60;5.33;;;;;;;;;;5046324;28;21021;-78
2023/01/01 01:29:02;;;;;;;7.50;5.23;;;;;;;;;;5041264;28;20184;-76
2023/01/01 01:34:32;;;;;;;7.43;5.53;;;;;;;;;;5042038;28;20239;-76
2023/01/01 01:36:58;;;;;;;8.57;5.60;;;;;;;;;;5043336;28;20189;-77
2023/01/01 01:39:24;;;;;;;7.13;5.50;;;;;;;;;;5044197;28;20193;-78
2023/01/01 01:41:50;;;;;;;6.37;5.37;;;;;;;;;;5054443;28;20247;-78
2023/01/01 01:44:35;;;;;;;7.60;5.87;;;;;;;;;;5050095;28;20193;-78
2023/01/01 01:47:02;;;;;;;7.67;5.97;;;;;;;;;;5046420;28;20543;-77
2023/01/01 01:49:30;;;;;;;9.17;5.57;;;;;;;;;;5043036;28;20181;-78
2023/01/01 01:51:56;;;;;;;7.27;6.27;;;;;;;;;;5037525;28;20436;-78
2023/01/01 01:54:23;;;;;;;8.40;5.60;;;;;;;;;;5043716;28;20189;-77
2023/01/01 01:56:54;;;;;;;7.67;5.93;;;;;;;;;;5043392;28;20182;-77
2023/01/01 01:59:22;;;;;;;10.47;6.60;;;;;;;;;;5041278;28;20251;-76
2023/01/01 02:01:48;;;;;;;9.20;6.10;;;;;;;;;;5047048;28;20182;-78
2023/01/01 02:04:14;;;;;;;8.73;6.33;;;;;;;;;;5044354;28;20681;-78
2023/01/01 02:06:40;;;;;;;8.17;6.57;;;;;;;;;;5048948;28;20177;-77
2023/01/01 02:09:07;;;;;;;9.97;6.50;;;;;;;;;;5047397;28;20193;-77
2023/01/01 02:11:33;;;;;;;8.37;6.13;;;;;;;;;;5048711;28;20274;-77
2023/01/01 02:14:00;;;;;;;8.30;6.53;;;;;;;;;;5042657;28;20190;-78
2023/01/01 02:16:45;;;;;;;9.27;6.57;;;;;;;;;;5044092;28;20593;-78
2023/01/01 02:19:23;;;;;;;6.17;5.30;;;;;;;;;;5038381;28;20756;-77
2023/01/01 02:21:59;;;;;;;8.67;6.20;;;;;;;;;;5042415;28;20193;-78
2023/01/01 02:24:25;;;;;;;8.30;5.67;;;;;;;;;;5052714;28;20185;-77
2023/01/01 02:27:06;;;;;;;8.93;5.77;;;;;;;;;;5032181;28;20263;-79
2023/01/01 02:29:41;;;;;;;8.50;6.50;;;;;;;;;;5029735;28;20221;-78
2023/01/01 02:32:10;;;;;;;7.87;5.40;;;;;;;;;;5031452;28;20304;-77
2023/01/01 02:34:42;;;;;;;7.70;5.73;;;;;;;;;;5025552;28;20662;-79
2023/01/01 02:37:10;;;;;;;6.77;5.20;;;;;;;;;;5031477;28;20200;-84
2023/01/01 02:39:38;;;;;;;7.10;5.50;;;;;;;;;;5039460;28;20189;-82
2023/01/01 02:42:06;;;;;;;7.83;5.43;;;;;;;;;;5045195;28;20220;-83
2023/01/01 02:44:35;;;;;;;6.30;5.00;;;;;;;;;;5041320;28;20461;-85
2023/01/01 02:50:11;;;;;;;10.40;5.63;;;;;;;;;;5034221;28;20561;-90
2023/01/01 02:52:47;;;;;;;6.30;5.03;;;;;;;;;;5042086;28;20221;-85
2023/01/01 02:55:24;;;;;;;5.83;4.87;;;;;;;;;;5032501;28;20189;-82
2023/01/01 02:57:52;;;;;;;6.33;5.13;;;;;;;;;;5029813;28;21159;-80
2023/01/01 03:00:26;;;;;;;7.10;5.37;;;;;;;;;;5034725;28;20181;-82
2023/01/01 03:02:55;;;;;;;6.70;5.37;;;;;;;;;;5031670;28;20220;-86
2023/01/01 03:05:33;;;;;;;6.27;5.17;;;;;;;;;;5029664;28;20201;-83
2023/01/01 03:08:21;;;;;;;8.10;4.67;;;;;;;;;;5037720;28;20212;-85
2023/01/01 03:11:00;;;;;;;5.13;4.63;;;;;;;;;;5045367;28;20196;-85
2023/01/01 03:13:55;;;;;;;7.07;4.90;;;;;;;;;;5031925;28;20204;-82
2023/01/01 03:16:24;;;;;;;8.80;5.20;;;;;;;;;;5012939;28;20221;-80
2023/01/01 03:19:09;;;;;;;5.30;4.53;;;;;;;;;;5028691;28;20194;-82
2023/01/01 03:21:40;;;;;;;4.60;4.00;;;;;;;;;;5016568;28;20779;-82
2023/01/01 03:24:07;;;;;;;5.63;4.40;;;;;;;;;;5029059;28;20609;-79
2023/01/01 03:26:34;;;;;;;6.67;4.97;;;;;;;;;;5029358;28;20194;-81
2023/01/01 03:29:01;;;;;;;5.67;4.93;;;;;;;;;;5011945;28;21117;-81
2023/01/01 03:31:27;;;;;;;6.30;5.03;;;;;;;;;;5016470;28;20217;-79
2023/01/01 03:33:57;;;;;;;7.40;5.13;;;;;;;;;;5029341;28;20251;-82
2023/01/01 03:36:26;;;;;;;6.30;4.93;;;;;;;;;;5032072;28;20185;-79
2023/01/01 03:38:54;;;;;;;6.47;5.17;;;;;;;;;;5015905;28;20192;-79
2023/01/01 03:41:23;;;;;;;6.80;4.87;;;;;;;;;;5027371;28;20226;-80
2023/01/01 03:44:18;;;;;;;5.33;4.67;;;;;;;;;;5011932;28;20185;-84
2023/01/01 03:46:44;;;;;;;5.67;4.53;;;;;;;;;;4998703;28;20933;-78
2023/01/01 03:49:12;;;;;;;6.20;4.43;;;;;;;;;;5029603;28;20220;-78
2023/01/01 03:51:39;;;;;;;6.87;5.30;;;;;;;;;;5031277;28;20225;-86
2023/01/01 03:54:13;;;;;;;6.37;4.87;;;;;;;;;;5034382;28;20220;-84
2023/01/01 03:56:44;;;;;;;6.50;5.00;;;;;;;;;;5035525;28;20181;-81
2023/01/01 03:59:14;;;;;;;5.80;5.00;;;;;;;;;;5032647;28;20189;-82
2023/01/01 04:01:42;;;;;;;5.47;4.70;;;;;;;;;;5039630;28;20185;-81
2023/01/01 04:04:08;;;;;;;6.77;5.17;;;;;;;;;;5033630;28;20185;-82
2023/01/01 04:06:34;;;;;;;5.37;4.70;;;;;;;;;;5027303;28;20205;-86
2023/01/01 04:09:02;;;;;;;6.70;4.60;;;;;;;;;;5030623;28;20182;-80
2023/01/01 04:14:32;;;;;;;5.87;4.63;;;;;;;;;;5027913;28;20263;-79
2023/01/01 04:16:59;;;;;;;7.93;5.00;;;;;;;;;;5033025;28;20185;-80
2023/01/01 04:19:25;;;;;;;6.60;5.07;;;;;;;;;;5030756;28;20272;-81
2023/01/01 04:21:51;;;;;;;5.40;4.73;;;;;;;;;;5032166;28;21453;-80
2023/01/01 04:24:17;;;;;;;6.73;4.80;;;;;;;;;;5034019;28;20976;-80
2023/01/01 04:26:44;;;;;;;6.37;5.10;;;;;;;;;;5038459;28;20185;-82
2023/01/01 04:29:10;;;;;;;4.83;4.33;;;;;;;;;;5038946;28;20194;-79
2023/01/01 04:31:36;;;;;;;5.07;4.40;;;;;;;;;;5032835;28;20700;-84
2023/01/01 04:34:02;;;;;;;5.57;4.50;;;;;;;;;;5035928;28;20358;-82
2023/01/01 04:36:28;;;;;;;5.20;4.63;;;;;;;;;;5033868;28;20751;-81
2023/01/01 04:38:54;;;;;;;7.80;4.83;;;;;;;;;;5032617;28;20324;-80
2023/01/01 04:41:20;;;;;;;5.60;4.53;;;;;;;;;;5032434;28;20829;-81
2023/01/01 04:43:52;;;;;;;6.57;4.73;;;;;;;;;;5031629;28;20248;-80
2023/01/01 04:46:19;;;;;;;5.47;4.20;;;;;;;;;;5028302;28;20190;-81
2023/01/01 04:48:45;;;;;;;6.47;4.73;;;;;;;;;;5039332;28;20186;-80
2023/01/01 04:51:12;;;;;;;4.77;4.23;;;;;;;;;;5041399;28;20820;-82
2023/01/01 04:53:39;;;;;;;6.43;4.40;;;;;;;;;;5046952;28;20212;-81
2023/01/01 04:56:09;;;;;;;6.70;4.80;;;;;;;;;;5047385;28;20910;-80
2023/01/01 04:58:37;;;;;;;5.53;4.13;;;;;;;;;;5047261;28;20561;-80
2023/01/01 05:01:04;;;;;;;4.80;4.27;;;;;;;;;;5047177;28;20246;-82
2023/01/01 05:03:31;;;;;;;6.50;5.00;;;;;;;;;;5041042;28;20186;-81
2023/01/01 05:06:00;;;;;;;4.70;4.20;;;;;;;;;;5042851;28;20854;-80
2023/01/01 05:08:28;;;;;;;8.27;4.73;;;;;;;;;;5041625;28;20272;-79
2023/01/01 05:10:58;;;;;;;6.23;4.63;;;;;;;;;;5041314;28;20211;-79
2023/01/01 05:13:24;;;;;;;5.30;3.97;;;;;;;;;;5046279;28;20196;-80
2023/01/01 05:15:50;;;;;;;5.03;4.00;;;;;;;;;;5048807;28;20190;-79
2023/01/01 05:18:16;;;;;;;5.83;4.73;;;;;;;;;;5047410;28;20665;-79
2023/01/01 05:20:42;;;;;;;5.57;4.37;;;;;;;;;;5041802;28;20189;-79
2023/01/01 05:23:08;;;;;;;6.40;4.20;;;;;;;;;;5049579;28;20922;-80
2023/01/01 05:25:34;;;;;;;6.57;4.33;;;;;;;;;;5048735;28;20193;-79
2023/01/01 05:28:00;;;;;;;6.70;4.30;;;;;;;;;;5047930;28;20645;-79
2023/01/01 05:30:26;;;;;;;7.60;4.20;;;;;;;;;;5048566;28;20248;-80
2023/01/01 05:32:53;;;;;;;7.20;4.33;;;;;;;;;;5058557;28;20218;-79
2023/01/01 05:35:19;;;;;;;7.30;4.27;;;;;;;;;;5040842;28;20646;-79
2023/01/01 05:37:45;;;;;;;6.53;4.07;;;;;;;;;;5044470;28;20799;-79
2023/01/01 05:40:11;;;;;;;5.47;4.50;;;;;;;;;;5043921;28;20177;-77
2023/01/01 05:42:37;;;;;;;5.67;4.20;;;;;;;;;;5047499;28;20245;-79
2023/01/01 05:45:04;;;;;;;5.00;4.13;;;;;;;;;;5047089;28;20865;-78
2023/01/01 05:47:30;;;;;;;6.70;4.10;;;;;;;;;;5046497;28;20188;-80
2023/01/01 05:49:56;;;;;;;5.23;3.93;;;;;;;;;;5045531;28;20194;-80
2023/01/01 05:52:22;;;;;;;5.00;4.13;;;;;;;;;;5048943;28;20279;-80
2023/01/01 05:54:48;;;;;;;7.43;3.83;;;;;;;;;;5042506;28;20573;-80
2023/01/01 05:57:13;;;;;;;5.70;4.00;;;;;;;;;;5045272;28;20181;-79
2023/01/01 05:59:40;;;;;;;5.70;3.97;;;;;;;;;;5043966;28;20770;-80
2023/01/01 06:02:06;;;;;;;5.60;4.33;;;;;;;;;;5042865;28;20194;-80
2023/01/01 06:04:32;;;;;;;6.63;3.73;;;;;;;;;;5046259;28;20185;-80
2023/01/01 06:06:57;;;;;;;5.60;4.23;;;;;;;;;;5046484;28;20189;-79
2023/01/01 06:09:23;;;;;;;7.30;4.70;;;;;;;;;;5047486;28;20223;-80
2023/01/01 06:11:49;;;;;;;5.10;4.03;;;;;;;;;;5044593;28;20256;-80
2023/01/01 06:14:15;;;;;;;4.87;3.80;;;;;;;;;;5045354;28;20186;-80
2023/01/01 06:16:41;;;;;;;7.13;3.97;;;;;;;;;;5044470;28;20263;-79
2023/01/01 06:19:07;;;;;;;5.57;4.00;;;;;;;;;;5046507;28;20185;-80
2023/01/01 06:21:33;;;;;;;7.07;3.97;;;;;;;;;;5044016;28;20177;-79
2023/01/01 06:24:00;;;;;;;5.33;4.10;;;;;;;;;;5043249;28;20239;-79
2023/01/01 06:26:27;;;;;;;8.13;4.60;;;;;;;;;;5042252;28;20899;-80
2023/01/01 06:28:53;;;;;;;5.40;4.37;;;;;;;;;;5042084;28;21002;-79
2023/01/01 06:31:20;;;;;;;5.80;5.07;;;;;;;;;;5043241;28;20221;-80
2023/01/01 06:33:46;;;;;;;5.87;5.07;;;;;;;;;;5042295;28;20180;-80
2023/01/01 06:36:14;;;;;;;9.90;5.17;;;;;;;;;;5049523;28;20173;-82
2023/01/01 06:38:41;;;;;;;6.77;4.73;;;;;;;;;;5044819;28;20197;-79
2023/01/01 06:41:09;;;;;;;6.33;4.57;;;;;;;;;;5043353;28;20647;-80
2023/01/01 06:43:35;;;;;;;6.23;4.30;;;;;;;;;;5048466;28;20222;-79
2023/01/01 06:46:03;;;;;;;8.20;4.40;;;;;;;;;;5044740;28;20209;-80
2023/01/01 06:48:29;;;;;;;6.03;4.30;;;;;;;;;;5042895;28;20186;-79
2023/01/01 06:50:56;;;;;;;6.73;4.10;;;;;;;;;;5045252;28;20215;-79
2023/01/01 06:53:25;;;;;;;6.00;4.40;;;;;;;;;;5043284;28;20209;-79
2023/01/01 06:55:51;;;;;;;5.63;4.53;;;;;;;;;;5047900;28;20189;-80
2023/01/01 06:58:17;;;;;;;6.77;3.63;;;;;;;;;;5048587;28;20188;-80
2023/01/01 07:00:43;;;;;;;5.37;4.20;;;;;;;;;;5046046;28;20185;-80
2023/01/01 07:03:10;;;;;;;6.97;3.90;;;;;;;;;;5043882;28;20185;-81
2023/01/01 07:05:36;;;;;;;5.67;3.93;;;;;;;;;;5045775;28;20197;-80
2023/01/01 07:08:02;;;;;;;6.17;4.67;;;;;;;;;;5044085;28;20564;-80
2023/01/01 07:10:28;;;;;;;5.80;4.10;;;;;;;;;;5046339;28;20193;-80
2023/01/01 07:12:54;;;;;;;8.13;4.10;;;;;;;;;;5043113;28;20247;-79
2023/01/01 07:15:20;;;;;;;6.00;4.17;;;;;;;;;;5045346;28;20226;-83
2023/01/01 07:17:46;;;;;;;6.83;4.73;;;;;;;;;;5044182;28;20191;-80
2023/01/01 07:20:12;;;;;;;7.73;4.23;;;;;;;;;;5045725;28;20562;-81
2023/01/01 07:22:39;;;;;;;7.43;4.77;;;;;;;;;;5046949;28;20194;-79
2023/01/01 07:25:06;;;;;;;6.63;4.57;;;;;;;;;;5044173;28;20638;-80
2023/01/01 07:27:32;;;;;;;7.03;4.47;;;;;;;;;;5042872;28;20445;-81
2023/01/01 07:29:58;;;;;;;7.13;4.23;;;;;;;;;;5044801;28;20786;-79
2023/01/01 07:32:24;;;;;;;8.10;4.27;;;;;;;;;;5041365;28;20216;-80
2023/01/01 07:34:50;;;;;;;7.23;4.73;;;;;;;;;;5041621;28;20254;-78
2023/01/01 07:37:16;;;;;;;6.60;4.53;;;;;;;;;;5047775;28;20643;-79
2023/01/01 07:39:42;;;;;;;6.60;4.37;;;;;;;;;;5043334;28;20343;-79
2023/01/01 07:42:08;;;;;;;6.37;3.90;;;;;;;;;;5039571;28;20190;-80
2023/01/01 07:44:34;;;;;;;8.73;4.57;;;;;;;;;;5045422;28;20189;-80
2023/01/01 07:47:13;;;;;;;9.10;4.03;;;;;;;;;;5046302;28;20182;-80
2023/01/01 07:49:39;;;;;;;6.80;4.17;;;;;;;;;;5043080;28;20306;-83
2023/01/01 07:52:05;;;;;;;7.20;4.20;;;;;;;;;;5044718;28;20748;-78
2023/01/01 07:54:31;;;;;;;8.67;4.00;;;;;;;;;;5051275;28;20189;-78
2023/01/01 07:56:57;;;;;;;9.03;4.50;;;;;;;;;;5040216;28;20630;-78
2023/01/01 07:59:23;;;;;;;5.97;3.90;;;;;;;;;;5043234;28;20193;-79
2023/01/01 08:01:49;;;;;;;7.00;4.23;;;;;;;;;;5042852;28;20673;-81
2023/01/01 08:04:15;;;;;;;6.67;3.90;;;;;;;;;;5042456;28;20232;-79
2023/01/01 08:06:41;;;;;;;4.90;4.00;;;;;;;;;;5038522;28;20186;-80
2023/01/01 08:09:07;;;;;;;12.30;3.73;;;;;;;;;;5045479;28;20181;-80
2023/01/01 08:11:33;;;;;;;8.23;4.27;;;;;;;;;;5042239;28;20682;-80
2023/01/01 08:13:59;;;;;;;6.40;4.27;;;;;;;;;;5044552;28;20213;-80
2023/01/01 08:16:25;;;;;;;6.80;3.83;;;;;;;;;;5042763;28;20743;-80
2023/01/01 08:18:51;;;;;;;7.13;3.97;;;;;;;;;;5041878;28;20182;-81
2023/01/01 08:21:17;;;;;;;10.03;3.80;;;;;;;;;;5048797;28;20676;-79
2023/01/01 08:23:43;;;;;;;7.33;4.40;;;;;;;;;;5043120;28;20193;-80
2023/01/01 08:26:16;;;;;;;8.17;4.20;;;;;;;;;;5043403;28;20217;-81
2023/01/01 08:28:42;;;;;;;5.70;4.10;;;;;;;;;;5045536;28;20215;-80
2023/01/01 08:31:08;;;;;;;5.87;4.20;;;;;;;;;;5049534;28;20755;-79
2023/01/01 08:33:34;;;;;;;7.70;4.17;;;;;;;;;;5044484;28;20186;-80
2023/01/01 08:36:00;;;;;;;7.83;4.53;;;;;;;;;;5042245;28;20625;-80
2023/01/01 08:38:26;;;;;;;8.77;3.90;;;;;;;;;;5042487;28;20189;-79
2023/01/01 08:40:52;;;;;;;8.37;4.67;;;;;;;;;;5049534;28;20285;-78
2023/01/01 08:43:18;;;;;;;11.60;4.53;;;;;;;;;;5050713;28;20281;-80
2023/01/01 08:45:44;;;;;;;9.73;4.40;;;;;;;;;;5043221;28;20237;-80
2023/01/01 08:48:11;;;;;;;8.57;4.50;;;;;;;;;;5046205;28;20938;-80
2023/01/01 08:50:37;;;;;;;12.97;5.30;;;;;;;;;;5042524;28;20189;-81
2023/01/01 08:53:03;;;;;;;6.60;4.20;;;;;;;;;;5044476;28;20215;-80
2023/01/01 08:55:30;;;;;;;8.57;3.90;;;;;;;;;;5046563;28;20189;-80
2023/01/01 08:57:56;;;;;;;8.47;4.57;;;;;;;;;;5047144;28;20182;-81
2023/01/01 09:00:22;;;;;;;9.90;4.30;;;;;;;;;;5045568;28;20181;-79
2023/01/01 09:02:48;;;;;;;8.47;4.50;;;;;;;;;;5049181;28;20542;-83
2023/01/01 09:05:14;;;;;;;8.37;4.57;;;;;;;;;;5050532;28;20221;-81
2023/01/01 09:07:40;;;;;;;8.43;4.00;;;;;;;;;;5046053;28;20725;-81
2023/01/01 09:10:07;;;;;;;10.33;4.60;;;;;;;;;;5049978;28;20169;-81
2023/01/01 09:12:33;;;;;;;8.83;4.10;;;;;;;;;;5051129;28;20194;-84
2023/01/01 09:14:59;;;;;;;12.87;4.73;;;;;;;;;;5047044;28;20208;-81
2023/01/01 09:17:25;;;;;;;13.90;4.53;;;;;;;;;;5048178;28;20949;-83
2023/01/01 09:19:51;;;;;;;10.27;4.37;;;;;;;;;;5046690;28;20284;-82
2023/01/01 09:22:17;;;;;;;7.60;4.20;;;;;;;;;;5047739;28;20182;-81
2023/01/01 09:24:43;;;;;;;9.53;4.17;;;;;;;;;;5046727;28;20186;-83
2023/01/01 09:27:09;;;;;;;7.97;4.50;;;;;;;;;;5046009;28;20201;-83
2023/01/01 09:29:35;;;;;;;12.60;4.70;;;;;;;;;;5048584;28;20233;-82
2023/01/01 09:32:01;;;;;;;11.40;4.67;;;;;;;;;;5043808;28;20710;-83
2023/01/01 09:34:27;;;;;;;10.10;4.77;;;;;;;;;;5048337;28;20177;-82
2023/01/01 09:36:53;;;;;;;8.37;3.93;;;;;;;;;;5059357;28;20318;-80
2023/01/01 09:39:19;;;;;;;10.30;4.37;;;;;;;;;;5042384;28;20643;-81
2023/01/01 09:41:51;;;;;;;7.17;4.00;;;;;;;;;;5049360;28;20201;-82
2023/01/01 09:44:36;;;;;;;7.47;3.87;;;;;;;;;;5054757;28;20185;-86
2023/01/01 09:47:03;;;;;;;12.23;4.07;;;;;;;;;;5049030;28;20186;-82
2023/01/01 09:49:38;;;;;;;10.80;4.00;;;;;;;;;;5043910;28;20205;-86
2023/01/01 09:52:04;;;;;;;6.03;3.87;;;;;;;;;;5053067;28;20216;-83
2023/01/01 09:54:37;;;;;;;12.90;4.63;;;;;;;;;;5046060;28;20188;-79
2023/01/01 09:57:05;;;;;;;8.40;4.23;;;;;;;;;;5042960;28;20190;-80
2023/01/01 09:59:31;;;;;;;12.43;4.50;;;;;;;;;;5043746;28;20276;-79
2023/01/01 10:01:57;;;;;;;9.20;4.37;;;;;;;;;;5051398;28;20181;-81
2023/01/01 10:04:42;;;;;;;11.20;4.60;;;;;;;;;;5052945;28;20185;-85
2023/01/01 10:07:19;;;;;;;11.50;4.33;;;;;;;;;;5046903;28;20173;-80
2023/01/01 10:09:45;;;;;;;10.50;4.67;;;;;;;;;;5050062;28;20194;-81
2023/01/01 10:12:16;;;;;;;8.90;4.07;;;;;;;;;;5051197;28;20262;-83
2023/01/01 10:14:44;;;;;;;11.80;4.40;;;;;;;;;;5045131;28;20201;-82
2023/01/01 10:17:22;;;;;;;8.93;4.10;;;;;;;;;;5043848;28;20209;-83
2023/01/01 10:19:53;;;;;;;11.83;4.50;;;;;;;;;;5042541;28;20920;-81
2023/01/01 10:22:26;;;;;;;9.03;3.97;;;;;;;;;;5048561;28;20190;-82
2023/01/01 10:24:57;;;;;;;7.53;4.23;;;;;;;;;;5046633;28;20186;-81
2023/01/01 10:27:29;;;;;;;12.50;4.23;;;;;;;;;;5045461;28;20182;-81
2023/01/01 10:29:56;;;;;;;9.47;4.03;;;;;;;;;;5044844;28;20245;-80
2023/01/01 10:32:22;;;;;;;14.23;4.17;;;;;;;;;;5040665;28;20202;-82
2023/01/01 10:34:49;;;;;;;8.40;3.80;;;;;;;;;;5040157;28;20208;-82
2023/01/01 10:37:15;;;;;;;6.63;3.87;;;;;;;;;;5041369;28;20200;-79
2023/01/01 10:39:42;;;;;;;13.07;4.83;;;;;;;;;;5040640;28;20201;-79
2023/01/01 10:42:10;;;;;;;9.80;4.03;;;;;;;;;;5038992;28;20744;-79
2023/01/01 10:44:36;;;;;;;14.37;4.43;;;;;;;;;;5041571;28;20223;-80
2023/01/01 10:47:23;;;;;;;9.50;4.20;;;;;;;;;;5037813;28;20189;-80
2023/01/01 10:49:56;;;;;;;10.67;4.43;;;;;;;;;;5040648;28;20281;-84
2023/01/01 10:52:30;;;;;;;13.97;4.23;;;;;;;;;;5038833;28;20221;-79
2023/01/01 10:54:58;;;;;;;7.77;4.00;;;;;;;;;;5031347;28;21093;-80
2023/01/01 10:57:27;;;;;;;8.57;3.83;;;;;;;;;;5028192;28;20185;-79
2023/01/01 10:59:53;;;;;;;10.17;4.43;;;;;;;;;;5032185;28;20193;-80
2023/01/01 11:02:20;;;;;;;15.13;4.53;;;;;;;;;;5028616;28;20197;-81
2023/01/01 11:04:47;;;;;;;10.80;4.10;;;;;;;;;;5032700;28;20228;-80
2023/01/01 11:07:25;;;;;;;8.07;3.63;;;;;;;;;;5039848;28;20213;-81
2023/01/01 11:09:51;;;;;;;8.97;4.20;;;;;;;;;;5045916;28;21397;-84
2023/01/01 11:12:20;;;;;;;15.13;4.63;;;;;;;;;;5040331;28;20201;-84
2023/01/01 11:14:49;;;;;;;14.73;5.07;;;;;;;;;;5037049;28;20190;-83
2023/01/01 11:17:41;;;;;;;10.80;3.77;;;;;;;;;;5035501;28;20186;-80
2023/01/01 11:20:16;;;;;;;9.67;4.17;;;;;;;;;;5034364;28;20186;-82
2023/01/01 11:22:51;;;;;;;14.70;4.43;;;;;;;;;;5030694;28;20192;-82
2023/01/01 11:25:22;;;;;;;7.77;4.00;;;;;;;;;;5036535;28;20602;-81
2023/01/01 11:27:49;;;;;;;12.03;4.57;;;;;;;;;;5041228;28;20511;-82
2023/01/01 11:30:18;;;;;;;13.90;4.17;;;;;;;;;;5037932;28;20286;-82
2023/01/01 11:32:46;;;;;;;14.70;4.83;;;;;;;;;;5037695;28;20225;-81
2023/01/01 11:35:18;;;;;;;8.87;4.27;;;;;;;;;;5037242;28;20204;-87
2023/01/01 11:37:45;;;;;;;16.63;4.23;;;;;;;;;;5039987;28;20791;-80
2023/01/01 11:40:19;;;;;;;9.27;4.53;;;;;;;;;;5030381;28;20185;-79
2023/01/01 11:42:47;;;;;;;8.83;4.20;;;;;;;;;;5036054;28;20201;-79
2023/01/01 11:45:19;;;;;;;9.33;3.83;;;;;;;;;;5035149;28;20331;-80
2023/01/01 11:47:49;;;;;;;9.83;3.93;;;;;;;;;;5031916;28;20185;-80
2023/01/01 11:50:29;;;;;;;11.23;4.17;;;;;;;;;;5030868;28;20211;-79
2023/01/01 11:52:57;;;;;;;10.97;4.77;;;;;;;;;;5035821;28;20209;-79
2023/01/01 11:55:25;;;;;;;10.77;4.00;;;;;;;;;;5030092;28;20189;-81
2023/01/01 11:57:59;;;;;;;9.80;4.63;;;;;;;;;;5040538;28;20189;-85
2023/01/01 12:00:25;;;;;;;7.90;3.93;;;;;;;;;;5037381;28;20203;-91
2023/01/01 12:02:59;;;;;;;11.33;4.27;;;;;;;;;;5035940;28;20216;-82
2023/01/01 12:05:29;;;;;;;13.37;4.20;;;;;;;;;;5033857;28;20193;-80
2023/01/01 12:07:57;;;;;;;14.73;4.17;;;;;;;;;;5032396;28;20185;-82
2023/01/01 12:10:29;;;;;;;10.50;4.20;;;;;;;;;;5034443;28;20173;-80
2023/01/01 12:13:05;;;;;;;10.37;3.77;;;;;;;;;;5044130;28;20210;-80
2023/01/01 12:15:36;;;;;;;15.17;4.53;;;;;;;;;;5044325;28;20833;-80
2023/01/01 12:18:05;;;;;;;8.97;3.90;;;;;;;;;;5049305;28;20678;-80
2023/01/01 12:20:31;;;;;;;8.57;4.10;;;;;;;;;;5052641;28;20269;-80
2023/01/01 12:22:58;;;;;;;7.97;3.67;;;;;;;;;;5047847;28;20239;-79
2023/01/01 12:25:26;;;;;;;7.73;3.90;;;;;;;;;;5046786;28;20219;-81
2023/01/01 12:27:59;;;;;;;9.37;3.77;;;;;;;;;;5051947;28;20185;-80
2023/01/01 12:30:43;;;;;;;11.17;4.23;;;;;;;;;;5049664;28;20708;-79
2023/01/01 12:33:09;;;;;;;7.50;4.50;;;;;;;;;;5049934;28;20716;-79
2023/01/01 12:35:44;;;;;;;9.80;4.33;;;;;;;;;;5050515;28;20208;-81
2023/01/01 12:38:20;;;;;;;8.77;4.00;;;;;;;;;;5044987;28;20311;-81
2023/01/01 12:40:47;;;;;;;7.40;4.10;;;;;;;;;;5044997;28;20189;-79
2023/01/01 12:43:13;;;;;;;9.27;3.90;;;;;;;;;;5047940;28;20180;-80
2023/01/01 12:45:39;;;;;;;11.73;4.10;;;;;;;;;;5042943;28;20186;-82
2023/01/01 12:48:23;;;;;;;11.67;4.90;;;;;;;;;;5053838;28;20193;-82
2023/01/01 12:50:58;;;;;;;8.10;4.13;;;;;;;;;;5049248;28;20177;-81
2023/01/01 12:53:51;;;;;;;8.13;4.10;;;;;;;;;;5043750;28;20205;-80
2023/01/01 12:56:39;;;;;;;11.27;4.23;;;;;;;;;;5042175;28;20221;-80
2023/01/01 12:59:11;;;;;;;10.53;4.37;;;;;;;;;;5045048;28;21334;-81
2023/01/01 13:01:39;;;;;;;13.00;4.23;;;;;;;;;;5041758;28;20182;-81
2023/01/01 13:04:06;;;;;;;10.57;4.90;;;;;;;;;;5045399;28;20202;-80
2023/01/01 13:06:32;;;;;;;9.10;4.80;;;;;;;;;;5042431;28;20221;-80
2023/01/01 13:09:02;;;;;;;7.70;4.30;;;;;;;;;;5044821;28;20308;-80
2023/01/01 13:11:28;;;;;;;7.93;4.30;;;;;;;;;;5040674;28;20629;-81
2023/01/01 13:13:54;;;;;;;9.20;4.20;;;;;;;;;;5050582;28;20535;-80
2023/01/01 13:16:41;;;;;;;10.03;4.83;;;;;;;;;;5050721;28;20181;-80
2023/01/01 13:19:23;;;;;;;8.77;4.87;;;;;;;;;;5051343;28;20176;-81
2023/01/01 13:21:49;;;;;;;8.80;4.73;;;;;;;;;;5040173;28;21161;-82
2023/01/01 13:24:20;;;;;;;7.53;4.57;;;;;;;;;;5045471;28;20228;-81
2023/01/01 13:26:47;;;;;;;13.03;4.43;;;;;;;;;;5044902;28;20194;-81
2023/01/01 13:29:13;;;;;;;8.13;4.17;;;;;;;;;;5041503;28;20212;-81
2023/01/01 13:31:42;;;;;;;8.70;4.37;;;;;;;;;;5038940;28;20181;-84
2023/01/01 13:34:27;;;;;;;8.63;4.00;;;;;;;;;;5041822;28;20286;-80
2023/01/01 13:37:13;;;;;;;12.87;4.53;;;;;;;;;;5048428;28;20200;-81
2023/01/01 13:39:52;;;;;;;10.20;4.40;;;;;;;;;;5045369;28;20714;-80
2023/01/01 13:42:36;;;;;;;13.13;4.10;;;;;;;;;;5042937;28;20188;-80
2023/01/01 13:45:03;;;;;;;8.50;4.57;;;;;;;;;;5048601;28;20193;-79
2023/01/01 13:47:39;;;;;;;7.27;4.07;;;;;;;;;;5044826;28;20201;-82
2023/01/01 13:50:14;;;;;;;12.70;4.47;;;;;;;;;;5039231;28;20181;-81
2023/01/01 13:52:56;;;;;;;9.27;4.50;;;;;;;;;;5043418;28;20250;-82
2023/01/01 13:55:31;;;;;;;13.33;4.23;;;;;;;;;;5041946;28;20185;-82
2023/01/01 13:57:57;;;;;;;9.87;4.57;;;;;;;;;;5048796;28;20185;-81
2023/01/01 14:00:35;;;;;;;9.17;5.30;;;;;;;;;;5040470;28;20186;-80
2023/01/01 14:03:02;;;;;;;10.13;4.20;;;;;;;;;;5044066;28;20197;-81
2023/01/01 14:05:38;;;;;;;10.07;4.60;;;;;;;;;;5053023;28;20204;-80
2023/01/01 14:08:04;;;;;;;6.80;4.00;;;;;;;;;;5045479;28;20203;-81
2023/01/01 14:10:35;;;;;;;9.67;4.57;;;;;;;;;;5056193;28;20184;-80
2023/01/01 14:13:07;;;;;;;7.03;4.20;;;;;;;;;;5042095;28;20296;-81
2023/01/01 14:15:53;;;;;;;6.80;4.73;;;;;;;;;;5043514;28;20186;-80
2023/01/01 14:18:21;;;;;;;11.13;5.07;;;;;;;;;;5034827;28;20198;-81
2023/01/01 14:20:48;;;;;;;7.23;4.73;;;;;;;;;;5044576;28;20193;-82
2023/01/01 14:23:34;;;;;;;10.63;5.10;;;;;;;;;;5047311;28;20189;-80
2023/01/01 14:26:01;;;;;;;11.23;4.90;;;;;;;;;;5050621;28;20242;-81
2023/01/01 14:28:28;;;;;;;8.20;4.60;;;;;;;;;;5043389;28;20185;-81
2023/01/01 14:30:55;;;;;;;8.97;4.97;;;;;;;;;;5052808;28;20304;-82
2023/01/01 14:33:23;;;;;;;7.97;4.90;;;;;;;;;;5043434;28;20221;-80
2023/01/01 14:35:56;;;;;;;9.30;4.80;;;;;;;;;;5055740;28;20235;-81
2023/01/01 14:38:26;;;;;;;8.57;5.37;;;;;;;;;;5052028;28;20660;-83
2023/01/01 14:41:00;;;;;;;12.30;5.47;;;;;;;;;;5052000;28;20181;-80
2023/01/01 14:43:26;;;;;;;6.57;4.70;;;;;;;;;;5042827;28;20193;-81
2023/01/01 14:45:52;;;;;;;7.87;4.60;;;;;;;;;;5048578;28;20280;-80
2023/01/01 14:48:19;;;;;;;10.33;4.77;;;;;;;;;;5043545;28;20197;-82
2023/01/01 14:50:50;;;;;;;10.23;4.40;;;;;;;;;;5040830;28;20259;-80
2023/01/01 14:53:20;;;;;;;7.57;4.70;;;;;;;;;;5046181;28;20583;-81
2023/01/01 14:55:47;;;;;;;9.37;5.50;;;;;;;;;;5041019;28;20189;-80
2023/01/01 14:58:16;;;;;;;6.60;4.80;;;;;;;;;;5041157;28;20182;-80
2023/01/01 15:00:42;;;;;;;9.70;5.53;;;;;;;;;;5044512;28;20712;-80
2023/01/01 15:03:26;;;;;;;12.17;6.17;;;;;;;;;;5051490;28;20213;-81
2023/01/01 15:05:59;;;;;;;9.47;5.37;;;;;;;;;;5048038;28;20193;-81
2023/01/01 15:08:25;;;;;;;6.77;5.33;;;;;;;;;;5043063;28;20217;-81
2023/01/01 15:10:52;;;;;;;10.27;6.27;;;;;;;;;;5043560;28;20185;-80